Time;durP1;ratioP1;P1;durP2;ratioP2;P2;SDS_P1;SDS_P2;PMS_P1;PMS_P2;Temp;Humidity;BMP_temperature;BMP_pressure;BME280_temperature;BME280_humidity;BME280_pressure;Samples;Min_cycle;Max_cycle;Signal;HPM_P1;HPM_P2
2021/10/24 00:02:21;;;;;;;24.58;13.60;;;;;;;3.77;100.00;102668.25;5188368;28;20029;-73
2021/10/24 00:04:52;;;;;;;24.40;14.45;;;;;;;3.71;100.00;102665.88;5201651;28;20025;-71
2021/10/24 00:07:22;;;;;;;25.65;14.40;;;;;;;3.64;100.00;102674.16;5200856;28;20057;-72
2021/10/24 00:09:53;;;;;;;80.22;17.70;;;;;;;3.60;100.00;102666.44;5200977;28;20415;-72
2021/10/24 00:12:24;;;;;;;21.88;13.55;;;;;;;3.54;100.00;102666.75;5201285;28;20379;-72
2021/10/24 00:14:55;;;;;;;20.40;12.80;;;;;;;3.50;100.00;102676.63;5201119;28;20029;-71
2021/10/24 00:17:25;;;;;;;16.23;10.85;;;;;;;3.47;100.00;102670.66;5201411;28;20155;-72
2021/10/24 00:19:56;;;;;;;17.55;10.90;;;;;;;3.42;100.00;102664.72;5200404;28;20098;-72
2021/10/24 00:22:26;;;;;;;17.17;10.30;;;;;;;3.40;100.00;102664.75;5201722;28;20482;-73
2021/10/24 00:24:57;;;;;;;20.73;12.30;;;;;;;3.41;100.00;102657.66;5200852;28;20338;-73
2021/10/24 00:27:27;;;;;;;40.92;15.75;;;;;;;3.38;100.00;102667.50;5200563;28;20078;-73
2021/10/24 00:29:58;;;;;;;27.05;14.23;;;;;;;3.36;100.00;102649.91;5200891;28;20079;-72
2021/10/24 00:32:29;;;;;;;28.63;14.48;;;;;;;3.34;100.00;102660.63;5201436;28;20045;-72
2021/10/24 00:34:59;;;;;;;23.90;14.38;;;;;;;3.30;100.00;102651.09;5200867;28;20043;-73
2021/10/24 00:37:29;;;;;;;22.25;13.05;;;;;;;3.27;100.00;102651.25;5201068;28;20025;-73
2021/10/24 00:40:00;;;;;;;21.20;12.77;;;;;;;3.26;100.00;102657.50;5200695;28;20503;-73
2021/10/24 00:42:30;;;;;;;25.23;13.63;;;;;;;3.24;100.00;102650.53;5200738;28;20033;-73
2021/10/24 00:45:01;;;;;;;24.17;13.93;;;;;;;3.21;100.00;102650.66;5200463;28;20087;-73
2021/10/24 00:47:32;;;;;;;22.48;13.73;;;;;;;3.20;100.00;102646.31;5201164;28;20036;-72
2021/10/24 00:50:03;;;;;;;35.50;15.13;;;;;;;3.17;100.00;102647.34;5200333;28;20548;-72
2021/10/24 00:52:34;;;;;;;22.23;12.60;;;;;;;3.15;100.00;102646.53;5201321;28;20017;-73
2021/10/24 00:55:05;;;;;;;26.55;13.50;;;;;;;3.10;100.00;102641.44;5200713;28;20029;-71
2021/10/24 00:57:36;;;;;;;22.65;13.05;;;;;;;3.08;100.00;102642.47;5200754;28;20017;-72
2021/10/24 01:00:10;;;;;;;24.50;12.82;;;;;;;3.05;100.00;102651.41;5200338;28;20025;-73
2021/10/24 01:02:40;;;;;;;19.85;10.63;;;;;;;3.02;100.00;102638.31;5189191;28;20073;-72
2021/10/24 01:05:13;;;;;;;21.98;12.43;;;;;;;3.01;100.00;102641.03;5199674;28;20049;-73
2021/10/24 01:07:46;;;;;;;23.73;11.63;;;;;;;2.98;100.00;102639.41;5200745;28;20057;-72
2021/10/24 01:10:18;;;;;;;69.70;15.15;;;;;;;2.95;100.00;102641.31;5200896;28;20047;-73
2021/10/24 01:12:50;;;;;;;24.30;13.07;;;;;;;2.92;100.00;102642.34;5201393;28;20471;-72
2021/10/24 01:15:22;;;;;;;23.92;13.80;;;;;;;2.91;100.00;102639.75;5200891;28;20368;-73
2021/10/24 01:17:53;;;;;;;50.83;14.20;;;;;;;2.89;100.00;102645.13;5201487;28;20060;-72
2021/10/24 01:20:26;;;;;;;21.60;12.55;;;;;;;2.87;100.00;102635.53;5200549;28;20029;-73
2021/10/24 01:22:57;;;;;;;23.15;13.27;;;;;;;2.85;100.00;102623.19;5200898;28;20041;-72
2021/10/24 01:25:28;;;;;;;28.13;14.27;;;;;;;2.87;100.00;102624.94;5201519;28;20487;-72
2021/10/24 01:27:59;;;;;;;30.23;14.88;;;;;;;2.85;100.00;102619.69;5201665;28;20029;-73
2021/10/24 01:30:29;;;;;;;27.70;14.15;;;;;;;2.81;100.00;102616.34;5200715;28;20060;-71
2021/10/24 01:33:00;;;;;;;23.23;13.93;;;;;;;2.78;100.00;102616.50;5200472;28;20026;-71
2021/10/24 01:35:30;;;;;;;24.65;13.75;;;;;;;2.77;100.00;102614.78;5200786;28;20028;-72
2021/10/24 01:38:01;;;;;;;21.73;13.00;;;;;;;2.76;100.00;102612.16;5200829;28;20483;-73
2021/10/24 01:40:32;;;;;;;20.95;11.93;;;;;;;2.77;100.00;102614.78;5204129;28;20393;-71
2021/10/24 01:43:02;;;;;;;20.70;12.30;;;;;;;2.81;100.00;102608.41;5204023;28;20034;-73
2021/10/24 01:45:33;;;;;;;20.80;11.85;;;;;;;2.81;100.00;102603.09;5204655;28;20108;-73
2021/10/24 01:48:04;;;;;;;23.48;13.65;;;;;;;2.77;100.00;102603.31;5220011;28;20104;-74
2021/10/24 01:50:35;;;;;;;23.42;13.55;;;;;;;2.72;100.00;102598.22;5204189;28;20375;-73
2021/10/24 01:53:06;;;;;;;26.08;12.77;;;;;;;2.69;100.00;102593.06;5204779;28;20060;-73
2021/10/24 01:55:37;;;;;;;23.00;13.35;;;;;;;2.70;100.00;102585.97;5203828;28;20105;-74
2021/10/24 01:58:08;;;;;;;27.60;13.73;;;;;;;2.68;100.00;102595.78;5204372;28;20554;-71
2021/10/24 02:00:40;;;;;;;26.67;13.85;;;;;;;2.63;100.00;102588.06;5198934;28;20046;-73
2021/10/24 02:03:12;;;;;;;22.77;14.07;;;;;;;2.59;100.00;102583.84;5196312;28;20044;-72
2021/10/24 02:05:43;;;;;;;24.60;12.75;;;;;;;2.56;100.00;102584.84;5203992;28;20034;-73
2021/10/24 02:08:14;;;;;;;22.08;12.95;;;;;;;2.52;100.00;102582.41;5203663;28;20029;-73
2021/10/24 02:10:47;;;;;;;28.83;14.40;;;;;;;2.49;100.00;102577.25;5202441;28;20483;-72
2021/10/24 02:13:18;;;;;;;27.63;14.55;;;;;;;2.46;100.00;102580.91;5203677;28;20021;-72
2021/10/24 02:15:49;;;;;;;27.58;14.52;;;;;;;2.45;100.00;102573.88;5203858;28;20100;-73
2021/10/24 02:18:19;;;;;;;24.45;12.93;;;;;;;2.43;100.00;102565.16;5203669;28;20392;-73
2021/10/24 02:20:50;;;;;;;26.13;14.27;;;;;;;2.41;100.00;102574.97;5203280;28;20342;-73
2021/10/24 02:23:21;;;;;;;28.90;14.10;;;;;;;2.39;100.00;102565.38;5203677;28;20025;-72
2021/10/24 02:25:51;;;;;;;25.15;13.93;;;;;;;2.38;100.00;102563.66;5203444;28;20049;-72
2021/10/24 02:28:22;;;;;;;27.73;12.88;;;;;;;2.37;100.00;102564.59;5203631;28;20109;-73
2021/10/24 02:30:52;;;;;;;22.85;12.88;;;;;;;2.35;100.00;102562.00;5203047;28;20068;-72
2021/10/24 02:33:23;;;;;;;26.17;14.77;;;;;;;2.36;100.00;102555.78;5203393;28;20033;-73
2021/10/24 02:35:53;;;;;;;26.73;13.77;;;;;;;2.34;100.00;102549.69;5203487;28;20025;-73
2021/10/24 02:38:24;;;;;;;21.45;12.25;;;;;;;2.32;100.00;102544.47;5203405;28;20505;-72
2021/10/24 02:40:54;;;;;;;29.00;13.90;;;;;;;2.32;100.00;102552.41;5203787;28;20056;-73
2021/10/24 02:43:25;;;;;;;29.25;14.80;;;;;;;2.30;100.00;102556.91;5203413;28;20025;-72
2021/10/24 02:45:55;;;;;;;29.05;14.48;;;;;;;2.27;100.00;102551.75;5203204;28;20395;-73
2021/10/24 02:48:26;;;;;;;25.65;13.90;;;;;;;2.25;100.00;102553.59;5203339;28;20020;-73
2021/10/24 02:50:58;;;;;;;30.48;13.93;;;;;;;2.23;100.00;102557.28;5202727;28;20029;-73
2021/10/24 02:53:28;;;;;;;28.65;13.38;;;;;;;2.22;100.00;102551.13;5203186;28;20010;-73
2021/10/24 02:55:59;;;;;;;28.48;14.85;;;;;;;2.20;100.00;102550.31;5202682;28;20017;-73
2021/10/24 02:58:29;;;;;;;26.60;14.20;;;;;;;2.20;100.00;102544.16;5203419;28;20670;-73
2021/10/24 03:01:00;;;;;;;27.17;14.30;;;;;;;2.17;100.00;102536.38;5202620;28;20033;-72
2021/10/24 03:03:31;;;;;;;24.17;12.65;;;;;;;2.13;100.00;102538.28;5202759;28;20479;-72
2021/10/24 03:06:03;;;;;;;21.98;11.82;;;;;;;2.10;100.00;102538.44;5203046;28;20085;-73
2021/10/24 03:08:33;;;;;;;26.90;13.60;;;;;;;2.06;100.00;102524.50;5202600;28;20619;-72
2021/10/24 03:11:04;;;;;;;25.00;12.70;;;;;;;2.05;100.00;102521.88;5202729;28;20379;-72
2021/10/24 03:13:34;;;;;;;26.50;13.32;;;;;;;2.04;100.00;102521.03;5202738;28;20025;-72
2021/10/24 03:16:05;;;;;;;22.13;12.73;;;;;;;2.04;100.00;102522.81;5202521;28;20110;-73
2021/10/24 03:18:36;;;;;;;24.25;12.30;;;;;;;2.00;100.00;102516.81;5202709;28;20021;-72
2021/10/24 03:21:06;;;;;;;18.33;10.23;;;;;;;1.97;100.00;102509.03;5202228;28;20109;-72
2021/10/24 03:23:38;;;;;;;17.08;9.02;;;;;;;1.94;100.00;102501.22;5202602;28;20497;-72
2021/10/24 03:26:08;;;;;;;16.33;9.77;;;;;;;1.91;100.00;102503.13;5202330;28;20068;-72
2021/10/24 03:28:39;;;;;;;29.95;12.13;;;;;;;1.90;100.00;102506.72;5203053;28;20021;-71
2021/10/24 03:31:09;;;;;;;20.15;11.95;;;;;;;1.90;100.00;102498.78;5202069;28;20411;-72
2021/10/24 03:33:40;;;;;;;19.52;10.38;;;;;;;1.89;100.00;102503.22;5202083;28;20103;-72
2021/10/24 03:36:10;;;;;;;17.70;10.07;;;;;;;1.89;100.00;102513.78;5202152;28;20017;-72
2021/10/24 03:38:42;;;;;;;24.08;12.95;;;;;;;1.90;100.00;102504.06;5202508;28;20490;-73
2021/10/24 03:41:14;;;;;;;24.13;12.25;;;;;;;1.91;100.00;102508.41;5201844;28;20028;-72
2021/10/24 03:43:44;;;;;;;22.40;12.57;;;;;;;1.90;100.00;102509.34;5201918;28;20030;-71
2021/10/24 03:46:15;;;;;;;18.00;10.57;;;;;;;1.90;100.00;102509.34;5201548;28;20463;-73
2021/10/24 03:48:46;;;;;;;24.30;12.40;;;;;;;1.91;100.00;102511.06;5202120;28;20086;-72
2021/10/24 03:51:16;;;;;;;23.55;11.98;;;;;;;1.91;100.00;102508.41;5201934;28;20583;-72
2021/10/24 03:53:47;;;;;;;24.33;12.50;;;;;;;1.93;100.00;102511.88;5202115;28;20037;-72
2021/10/24 03:56:17;;;;;;;23.35;12.02;;;;;;;1.97;100.00;102510.81;5201713;28;20026;-72
2021/10/24 03:58:48;;;;;;;24.88;12.75;;;;;;;1.99;100.00;102511.59;5201802;28;20029;-72
2021/10/24 04:01:18;;;;;;;23.63;13.05;;;;;;;1.96;100.00;102511.75;5201527;28;20029;-72
2021/10/24 04:03:49;;;;;;;24.77;12.73;;;;;;;1.92;100.00;102515.47;5200966;28;20467;-71
2021/10/24 04:06:19;;;;;;;22.92;12.68;;;;;;;1.85;100.00;102514.84;5201888;28;20160;-72
2021/10/24 04:08:50;;;;;;;23.13;11.77;;;;;;;1.78;100.00;102514.28;5201459;28;20029;-72
2021/10/24 04:11:21;;;;;;;23.25;11.90;;;;;;;1.74;100.00;102504.75;5201754;28;20101;-72
2021/10/24 04:13:51;;;;;;;27.13;13.70;;;;;;;1.70;100.00;102510.25;5201868;28;20368;-72
2021/10/24 04:16:22;;;;;;;25.30;12.75;;;;;;;1.66;100.00;102506.91;5201629;28;20036;-71
2021/10/24 04:18:52;;;;;;;30.10;14.55;;;;;;;1.64;100.00;102510.53;5201645;28;20033;-72
2021/10/24 04:21:23;;;;;;;40.47;14.88;;;;;;;1.63;100.00;102506.19;5201292;28;20029;-73
2021/10/24 04:23:53;;;;;;;28.33;12.52;;;;;;;1.60;100.00;102504.50;5201605;28;20438;-72
2021/10/24 04:26:24;;;;;;;45.80;13.50;;;;;;;1.59;100.00;102512.53;5201336;28;20064;-72
2021/10/24 04:28:56;;;;;;;29.00;13.07;;;;;;;1.57;100.00;102509.97;5201218;28;20045;-71
2021/10/24 04:31:27;;;;;;;22.25;11.88;;;;;;;1.56;100.00;102508.25;5201577;28;20025;-72
2021/10/24 04:33:57;;;;;;;26.42;12.60;;;;;;;1.56;100.00;102508.25;5201286;28;20033;-72
2021/10/24 04:36:28;;;;;;;28.08;13.15;;;;;;;1.54;100.00;102499.50;5201222;28;20033;-71
2021/10/24 04:38:58;;;;;;;26.55;13.18;;;;;;;1.52;100.00;102496.06;5201168;28;20053;-72
2021/10/24 04:41:29;;;;;;;27.25;13.95;;;;;;;1.49;100.00;102494.41;5201469;28;20399;-72
2021/10/24 04:43:59;;;;;;;24.35;12.65;;;;;;;1.48;100.00;102494.47;5202653;28;20033;-72
2021/10/24 04:46:30;;;;;;;34.42;15.35;;;;;;;1.51;100.00;102499.66;5207731;28;20554;-73
2021/10/24 04:49:00;;;;;;;27.98;13.05;;;;;;;1.48;100.00;102492.69;5204285;28;20083;-73
2021/10/24 04:51:31;;;;;;;32.72;14.52;;;;;;;1.46;100.00;102491.06;5201365;28;20033;-72
2021/10/24 04:54:01;;;;;;;27.25;12.60;;;;;;;1.43;100.00;102492.03;5201646;28;20481;-71
2021/10/24 04:56:32;;;;;;;40.72;14.00;;;;;;;1.41;100.00;102488.63;5202006;28;20368;-71
2021/10/24 04:59:03;;;;;;;36.65;15.80;;;;;;;1.43;100.00;102480.59;5202640;28;20534;-72
2021/10/24 05:01:34;;;;;;;34.25;14.65;;;;;;;1.41;100.00;102474.53;5203808;28;20029;-71
2021/10/24 05:04:04;;;;;;;33.38;15.07;;;;;;;1.38;100.00;102474.66;5203602;28;20522;-72
2021/10/24 05:06:35;;;;;;;28.20;13.85;;;;;;;1.35;100.00;102473.00;5203128;28;20060;-71
2021/10/24 05:09:06;;;;;;;27.48;12.55;;;;;;;1.36;100.00;102476.53;5202845;28;20033;-71
2021/10/24 05:11:36;;;;;;;33.05;13.75;;;;;;;1.34;100.00;102473.06;5202972;28;20026;-71
2021/10/24 05:14:07;;;;;;;30.58;12.38;;;;;;;1.32;100.00;102465.22;5204291;28;20018;-72
2021/10/24 05:16:38;;;;;;;32.50;14.40;;;;;;;1.33;100.00;102471.34;5206011;28;20029;-71
2021/10/24 05:19:08;;;;;;;29.23;14.18;;;;;;;1.33;100.00;102458.13;5206081;28;20033;-71
2021/10/24 05:21:39;;;;;;;33.80;13.13;;;;;;;1.31;100.00;102458.22;5205012;28;20104;-71
2021/10/24 05:24:09;;;;;;;26.83;13.77;;;;;;;1.31;100.00;102458.22;5207709;28;20021;-71
2021/10/24 05:26:40;;;;;;;27.00;13.27;;;;;;;1.32;100.00;102461.72;5205074;28;20390;-71
2021/10/24 05:29:10;;;;;;;26.80;13.20;;;;;;;1.30;100.00;102461.75;5205263;28;20104;-71
2021/10/24 05:31:41;;;;;;;26.73;12.93;;;;;;;1.25;100.00;102453.16;5204700;28;20110;-72
2021/10/24 05:34:12;;;;;;;25.63;11.88;;;;;;;1.22;100.00;102456.81;5208214;28;20021;-71
2021/10/24 05:36:43;;;;;;;26.23;12.48;;;;;;;1.17;100.00;102452.66;5204684;28;20461;-72
2021/10/24 05:39:14;;;;;;;25.52;11.85;;;;;;;1.13;100.00;102448.44;5206066;28;20022;-72
2021/10/24 05:41:45;;;;;;;24.23;12.05;;;;;;;1.12;100.00;102454.66;5206010;28;20075;-72
2021/10/24 05:44:19;;;;;;;21.65;10.88;;;;;;;1.11;100.00;102442.38;5192366;28;20479;-72
2021/10/24 05:46:50;;;;;;;22.92;11.95;;;;;;;1.14;100.00;102439.56;5205631;28;20124;-72
2021/10/24 05:49:21;;;;;;;23.67;11.77;;;;;;;1.11;100.00;102435.28;5206578;28;20116;-72
2021/10/24 05:51:53;;;;;;;30.80;13.05;;;;;;;1.06;100.00;102429.34;5205626;28;20018;-71
2021/10/24 05:54:24;;;;;;;26.20;12.23;;;;;;;1.03;100.00;102429.47;5189171;28;20076;-71
2021/10/24 05:56:54;;;;;;;21.48;11.20;;;;;;;1.00;100.00;102422.53;5193075;28;20565;-72
2021/10/24 05:59:25;;;;;;;24.55;11.85;;;;;;;0.99;100.00;102420.78;5203898;28;20579;-71
2021/10/24 06:01:56;;;;;;;29.58;12.57;;;;;;;0.96;100.00;102417.44;5188921;28;20025;-69
2021/10/24 06:04:26;;;;;;;30.02;13.27;;;;;;;0.97;100.00;102416.50;5202521;28;20497;-72
2021/10/24 06:06:57;;;;;;;29.05;13.20;;;;;;;0.96;100.00;102415.66;5218618;28;20542;-72
2021/10/24 06:09:50;;;;;;;35.30;15.13;;;;;;;1.00;100.00;102424.28;5201202;28;20108;-71
2021/10/24 06:15:14;;;;;;;32.72;13.73;;;;;;;1.00;100.00;102414.59;5201975;28;20107;-71
2021/10/24 06:17:46;;;;;;;27.13;12.77;;;;;;;1.00;100.00;102405.78;5202224;28;20048;-71
2021/10/24 06:20:18;;;;;;;31.73;14.13;;;;;;;1.02;100.00;102409.25;5201452;28;20033;-71
2021/10/24 06:23:10;;;;;;;34.20;13.25;;;;;;;1.03;100.00;102405.66;5202262;28;20051;-71
2021/10/24 06:25:41;;;;;;;32.88;12.55;;;;;;;1.03;100.00;102405.66;5201509;28;20037;-72
2021/10/24 06:28:14;;;;;;;29.85;12.23;;;;;;;1.04;100.00;102400.31;5202131;28;20053;-72
2021/10/24 06:30:44;;;;;;;31.50;13.73;;;;;;;1.05;100.00;102401.16;5202132;28;20029;-72
2021/10/24 06:33:15;;;;;;;28.55;12.48;;;;;;;1.06;100.00;102400.25;5202592;28;20489;-72
2021/10/24 06:35:46;;;;;;;41.50;15.23;;;;;;;1.08;100.00;102398.41;5199677;28;20063;-72
2021/10/24 06:38:18;;;;;;;34.35;16.45;;;;;;;1.11;100.00;102400.91;5195551;28;20017;-72
2021/10/24 06:40:48;;;;;;;39.08;16.60;;;;;;;1.15;100.00;102399.84;5197673;28;20108;-72
2021/10/24 06:43:19;;;;;;;35.30;16.10;;;;;;;1.21;100.00;102399.59;5198620;28;20028;-71
2021/10/24 06:45:50;;;;;;;33.65;15.27;;;;;;;1.26;100.00;102396.75;5199505;28;20101;-72
2021/10/24 06:48:20;;;;;;;39.38;14.93;;;;;;;1.29;100.00;102397.44;5199799;28;20025;-72
2021/10/24 06:50:51;;;;;;;38.05;16.90;;;;;;;1.31;100.00;102402.69;5198879;28;20033;-72
2021/10/24 06:53:21;;;;;;;35.35;15.38;;;;;;;1.31;100.00;102407.97;5199437;28;20519;-72
2021/10/24 06:55:52;;;;;;;31.02;14.70;;;;;;;1.31;100.00;102393.91;5199372;28;20414;-72
2021/10/24 06:58:22;;;;;;;32.92;15.23;;;;;;;1.32;100.00;102395.59;5199300;28;20120;-72
2021/10/24 07:00:53;;;;;;;35.75;15.57;;;;;;;1.34;100.00;102396.38;5197865;28;20052;-72
2021/10/24 07:03:23;;;;;;;45.67;17.92;;;;;;;1.39;100.00;102386.47;5198949;28;20037;-72
2021/10/24 07:05:54;;;;;;;48.40;17.63;;;;;;;1.46;100.00;102386.13;5199115;28;20272;-72
2021/10/24 07:08:24;;;;;;;39.65;16.92;;;;;;;1.58;100.00;102389.13;5198939;28;20067;-72
2021/10/24 07:10:54;;;;;;;45.92;18.05;;;;;;;1.70;100.00;102389.41;5177309;28;20260;-73
2021/10/24 07:13:25;;;;;;;55.22;20.00;;;;;;;1.90;100.00;102388.47;5195779;28;20466;-72
2021/10/24 07:15:56;;;;;;;52.63;20.48;;;;;;;2.12;100.00;102385.66;5199333;28;20197;-72
2021/10/24 07:18:27;;;;;;;45.40;20.25;;;;;;;2.27;100.00;102381.41;5198482;28;20112;-71
2021/10/24 07:20:57;;;;;;;49.55;21.35;;;;;;;2.38;100.00;102380.88;5199335;28;20030;-71
2021/10/24 07:23:28;;;;;;;56.20;22.02;;;;;;;2.50;100.00;102380.25;5198800;28;20072;-72
2021/10/24 07:25:58;;;;;;;52.85;23.67;;;;;;;2.90;100.00;102378.25;5198936;28;20030;-72
2021/10/24 07:28:29;;;;;;;52.97;24.20;;;;;;;3.58;100.00;102371.94;5198836;28;20057;-72
2021/10/24 07:30:59;;;;;;;46.70;19.95;;;;;;;4.27;100.00;102376.03;5198141;28;20479;-72
2021/10/24 07:33:30;;;;;;;33.20;16.77;;;;;;;5.04;100.00;102375.00;5198792;28;20241;-72
2021/10/24 07:36:00;;;;;;;28.75;14.88;;;;;;;5.48;100.00;102367.91;5197405;28;20067;-72
2021/10/24 07:38:31;;;;;;;27.02;13.57;;;;;;;5.89;100.00;102367.94;5198174;28;20100;-72
2021/10/24 07:41:02;;;;;;;23.08;13.02;;;;;;;6.45;100.00;102371.38;5194094;28;20153;-72
2021/10/24 07:43:32;;;;;;;25.75;11.82;;;;;;;7.04;100.00;102377.13;5185820;28;20018;-72
2021/10/24 07:46:03;;;;;;;16.65;9.80;;;;;;;7.50;100.00;102372.09;5197972;28;20037;-73
2021/10/24 07:48:34;;;;;;;18.50;10.45;;;;;;;7.67;100.00;102375.38;5198642;28;20037;-74
2021/10/24 07:51:04;;;;;;;19.30;10.45;;;;;;;8.03;100.00;102367.38;5198115;28;20052;-72
2021/10/24 07:53:34;;;;;;;19.05;10.30;;;;;;;8.32;100.00;102369.69;5198458;28;20463;-73
2021/10/24 07:56:05;;;;;;;17.40;10.02;;;;;;;8.46;100.00;102369.53;5198511;28;20115;-73
2021/10/24 07:58:36;;;;;;;18.13;9.80;;;;;;;8.78;100.00;102368.91;5198080;28;20047;-73
2021/10/24 08:01:07;;;;;;;16.50;9.30;;;;;;;9.13;100.00;102359.97;5198772;28;20032;-73
2021/10/24 08:03:37;;;;;;;15.05;8.48;;;;;;;9.40;100.00;102360.50;5198032;28;20030;-73
2021/10/24 08:06:08;;;;;;;14.32;8.00;;;;;;;9.64;100.00;102363.06;5198659;28;20502;-73
2021/10/24 08:08:38;;;;;;;14.02;8.18;;;;;;;9.75;100.00;102357.66;5204004;28;20044;-73
2021/10/24 08:11:11;;;;;;;12.77;7.05;;;;;;;10.03;100.00;102358.09;5197989;28;20021;-74
2021/10/24 08:13:41;;;;;;;12.38;7.82;;;;;;;10.08;100.00;102351.38;5184905;28;20059;-73
2021/10/24 08:16:12;;;;;;;13.32;5.82;;;;;;;10.58;100.00;102349.00;5197845;28;20021;-73
2021/10/24 08:18:43;;;;;;;11.80;5.75;;;;;;;10.67;100.00;102351.91;5197970;28;20414;-74
2021/10/24 08:21:13;;;;;;;11.90;5.38;;;;;;;10.89;100.00;102351.75;5197911;28;20025;-73
2021/10/24 08:23:45;;;;;;;6.65;4.68;;;;;;;10.72;100.00;102349.69;5197611;28;20482;-73
2021/10/24 08:26:16;;;;;;;9.80;4.97;;;;;;;10.73;100.00;102344.16;5197959;28;20026;-73
2021/10/24 08:28:47;;;;;;;8.20;4.53;;;;;;;11.32;100.00;102345.34;5197766;28;20036;-74
2021/10/24 08:31:24;;;;;;;9.05;4.70;;;;;;;11.00;100.00;102343.66;5197422;28;20029;-73
2021/10/24 08:33:57;;;;;;;15.43;4.93;;;;;;;10.85;100.00;102340.44;5198055;28;20457;-73
2021/10/24 08:36:28;;;;;;;9.38;4.70;;;;;;;11.09;100.00;102331.25;5198343;28;20387;-73
2021/10/24 08:38:59;;;;;;;9.60;4.15;;;;;;;11.52;100.00;102339.06;5197295;28;20029;-73
2021/10/24 08:41:30;;;;;;;8.10;3.88;;;;;;;11.01;100.00;102339.97;5213372;28;20044;-73
2021/10/24 08:44:02;;;;;;;7.55;4.10;;;;;;;11.28;100.00;102335.84;5197474;28;20032;-73
2021/10/24 08:46:33;;;;;;;7.82;4.60;;;;;;;11.64;100.00;102334.44;5198489;28;20068;-73
2021/10/24 08:49:03;;;;;;;6.65;3.92;;;;;;;11.73;100.00;102338.16;5199154;28;20390;-73
2021/10/24 08:51:34;;;;;;;8.52;4.15;;;;;;;11.56;100.00;102331.59;5202504;28;20030;-73
2021/10/24 08:54:04;;;;;;;8.45;3.92;;;;;;;11.85;100.00;102337.09;5208188;28;20028;-72
2021/10/24 08:56:35;;;;;;;10.93;4.53;;;;;;;11.55;100.00;102335.28;5209027;28;20029;-73
2021/10/24 08:59:06;;;;;;;8.05;4.10;;;;;;;11.68;100.00;102339.41;5201278;28;20093;-73
2021/10/24 09:01:53;;;;;;;10.18;4.57;;;;;;;11.58;100.00;102334.97;5201418;28;20021;-72
2021/10/24 09:04:24;;;;;;;11.32;4.10;;;;;;;11.76;100.00;102337.88;5201576;28;20036;-73
2021/10/24 09:06:59;;;;;;;11.30;4.72;;;;;;;12.02;100.00;102327.47;5200921;28;20463;-73
2021/10/24 09:09:32;;;;;;;9.18;4.05;;;;;;;12.19;100.00;102332.16;5201040;28;20294;-73
2021/10/24 09:12:06;;;;;;;7.45;4.18;;;;;;;12.08;100.00;102318.84;5201936;28;20394;-73
2021/10/24 09:14:48;;;;;;;9.17;3.90;;;;;;;12.16;100.00;102324.38;5201100;28;20029;-73
2021/10/24 09:17:21;;;;;;;13.77;4.93;;;;;;;11.84;100.00;102317.38;5200929;28;20282;-73
2021/10/24 09:19:54;;;;;;;9.27;3.45;;;;;;;11.96;100.00;102318.13;5201269;28;20033;-73
2021/10/24 09:22:27;;;;;;;10.45;4.55;;;;;;;12.38;100.00;102301.72;5202340;28;20471;-73
2021/10/24 09:25:05;;;;;;;9.73;4.10;;;;;;;12.43;100.00;102302.97;5201344;28;20449;-73
2021/10/24 09:27:42;;;;;;;6.95;4.55;;;;;;;12.31;100.00;102304.13;5201077;28;20033;-74
2021/10/24 09:30:28;;;;;;;8.88;4.95;;;;;;;12.32;100.00;102303.13;5201036;28;20530;-74
2021/10/24 09:33:02;;;;;;;8.68;4.32;;;;;;;12.37;100.00;102300.03;5202122;28;20550;-74
2021/10/24 09:35:38;;;;;;;8.63;4.80;;;;;;;12.37;100.00;102297.34;5201118;28;20021;-74
2021/10/24 09:38:15;;;;;;;11.13;4.20;;;;;;;12.50;100.00;102297.91;5188050;28;20486;-74
2021/10/24 09:40:50;;;;;;;8.38;3.95;;;;;;;12.70;100.00;102301.38;5200847;28;20068;-73
2021/10/24 09:43:30;;;;;;;14.23;4.45;;;;;;;12.41;100.00;102298.75;5201384;28;20022;-73
2021/10/24 09:46:02;;;;;;;8.48;3.85;;;;;;;12.48;100.00;102294.47;5201498;28;20026;-73
2021/10/24 09:48:35;;;;;;;9.45;4.38;;;;;;;12.29;100.00;102294.50;5200800;28;20109;-73
2021/10/24 09:51:11;;;;;;;8.65;3.80;;;;;;;12.30;100.00;102293.50;5200374;28;20091;-73
2021/10/24 09:53:46;;;;;;;7.07;3.85;;;;;;;12.37;100.00;102294.63;5200862;28;20552;-73
2021/10/24 09:56:18;;;;;;;8.18;4.40;;;;;;;12.44;100.00;102299.28;5200286;28;20402;-73
2021/10/24 09:58:51;;;;;;;9.07;4.07;;;;;;;12.32;100.00;102299.59;5200805;28;20052;-73
2021/10/24 10:01:22;;;;;;;9.70;3.75;;;;;;;12.40;100.00;102300.59;5200314;28;20443;-73
2021/10/24 10:03:52;;;;;;;7.40;3.95;;;;;;;12.55;100.00;102292.06;5200367;28;20029;-73
2021/10/24 10:06:24;;;;;;;8.18;4.10;;;;;;;12.69;100.00;102297.84;5200347;28;20067;-73
2021/10/24 10:08:57;;;;;;;8.73;3.70;;;;;;;12.75;100.00;102293.75;5200111;28;20387;-73
2021/10/24 10:11:27;;;;;;;8.90;3.40;;;;;;;12.76;100.00;102294.59;5199902;28;20399;-73
2021/10/24 10:14:04;;;;;;;12.43;4.00;;;;;;;12.78;100.00;102292.59;5200616;28;20025;-73
2021/10/24 10:16:40;;;;;;;7.75;3.38;;;;;;;12.81;100.00;102292.31;5198815;28;20037;-73
2021/10/24 10:19:13;;;;;;;5.82;3.22;;;;;;;12.68;100.00;102293.44;5200098;28;20018;-73
2021/10/24 10:21:47;;;;;;;7.93;3.25;;;;;;;12.85;100.00;102291.88;5200094;28;20253;-74
2021/10/24 10:24:33;;;;;;;7.50;3.37;;;;;;;12.58;100.00;102284.53;5200605;28;20675;-74
2021/10/24 10:27:34;;;;;;;8.80;4.20;;;;;;;12.43;100.00;102286.84;5200391;28;20029;-74
2021/10/24 10:30:09;;;;;;;7.63;3.70;;;;;;;12.57;100.00;102288.25;5187717;28;20028;-74
2021/10/24 10:32:48;;;;;;;6.65;3.50;;;;;;;12.68;100.00;102290.75;5199916;28;20082;-73
2021/10/24 10:35:22;;;;;;;7.20;3.42;;;;;;;12.73;100.00;102290.31;5200336;28;20025;-73
2021/10/24 10:38:01;;;;;;;8.43;3.67;;;;;;;12.97;100.00;102284.47;5199778;28;20168;-73
2021/10/24 10:40:34;;;;;;;9.27;3.50;;;;;;;13.08;100.00;102281.56;5199658;28;20070;-73
2021/10/24 10:43:09;;;;;;;9.13;3.40;;;;;;;13.26;100.00;102284.38;5200315;28;20029;-74
2021/10/24 10:45:46;;;;;;;6.45;3.30;;;;;;;13.15;100.00;102282.69;5198695;28;20049;-74
2021/10/24 10:48:27;;;;;;;9.07;3.42;;;;;;;13.24;100.00;102280.13;5200620;28;20040;-74
2021/10/24 10:51:06;;;;;;;7.93;3.67;;;;;;;13.13;100.00;102283.81;5199454;28;20034;-74
2021/10/24 10:53:49;;;;;;;7.35;3.53;;;;;;;13.27;100.00;102277.13;5200509;28;20057;-73
2021/10/24 10:56:22;;;;;;;5.95;3.10;;;;;;;13.31;100.00;102283.94;5200229;28;20511;-73
2021/10/24 10:58:55;;;;;;;10.77;3.67;;;;;;;13.48;100.00;102275.88;5200470;28;20037;-73
2021/10/24 11:01:27;;;;;;;6.57;3.50;;;;;;;13.51;100.00;102271.22;5200155;28;20526;-73
2021/10/24 11:04:15;;;;;;;11.75;3.80;;;;;;;13.71;100.00;102268.22;5200462;28;20464;-74
2021/10/24 11:06:54;;;;;;;8.25;3.55;;;;;;;13.87;100.00;102264.00;5199972;28;20021;-73
2021/10/24 11:09:43;;;;;;;5.35;2.92;;;;;;;13.92;100.00;102259.00;5200404;28;20025;-73
2021/10/24 11:12:33;;;;;;;5.13;3.00;;;;;;;13.78;100.00;102254.13;5189062;28;20025;-73
2021/10/24 11:15:06;;;;;;;7.30;3.03;;;;;;;13.71;100.00;102243.97;5202908;28;20495;-73
2021/10/24 11:17:39;;;;;;;12.40;3.95;;;;;;;13.70;100.00;102244.97;5190011;28;20022;-73
2021/10/24 11:20:24;;;;;;;8.35;3.00;;;;;;;13.50;100.00;102239.81;5190104;28;20060;-73
2021/10/24 11:22:59;;;;;;;4.07;2.60;;;;;;;13.61;100.00;102235.09;5202595;28;20415;-73
2021/10/24 11:25:33;;;;;;;5.70;2.58;;;;;;;13.66;100.00;102235.47;5198011;28;20687;-74
2021/10/24 11:28:08;;;;;;;7.22;2.65;;;;;;;13.65;100.00;102231.06;5196867;28;20490;-74
2021/10/24 11:30:39;;;;;;;4.88;2.83;;;;;;;13.86;100.00;102230.78;5196488;28;20029;-74
2021/10/24 11:33:11;;;;;;;5.97;2.95;;;;;;;13.97;100.00;102229.69;5196767;28;20025;-74
2021/10/24 11:35:42;;;;;;;4.32;2.30;;;;;;;14.02;100.00;102222.00;5196660;28;20029;-74
2021/10/24 11:38:14;;;;;;;10.30;2.88;;;;;;;14.08;100.00;102213.25;5197012;28;20406;-73